createdAt,value
2022-09-09T00:02:36.810Z,50.94
2022-09-09T00:05:32.681Z,51.22
2022-09-09T00:08:06.559Z,51.24
2022-09-09T00:10:48.950Z,50.95
2022-09-09T00:14:05.797Z,51.38
2022-09-09T00:17:00.641Z,51.41
2022-09-09T00:20:03.220Z,51.30
2022-09-09T00:23:06.931Z,51.10
2022-09-09T00:25:57.428Z,50.92
2022-09-09T00:28:35.140Z,51.35
2022-09-09T00:31:39.381Z,50.83
2022-09-09T00:34:28.838Z,51.52
2022-09-09T00:37:01.617Z,50.89
2022-09-09T00:40:04.388Z,51.09
2022-09-09T00:42:51.068Z,51.46
2022-09-09T00:45:43.668Z,51.10
2022-09-09T00:48:12.993Z,51.02
2022-09-09T00:50:58.723Z,51.52
2022-09-09T00:54:13.635Z,51.06
2022-09-09T00:57:19.316Z,51.14
2022-09-09T01:00:17.094Z,51.54
2022-09-09T01:03:33.141Z,51.28
2022-09-09T01:06:22.528Z,51.24
2022-09-09T01:12:21.204Z,51.58
2022-09-09T01:15:31.837Z,51.28
2022-09-09T01:18:55.820Z,51.42
2022-09-09T01:21:54.950Z,51.64
2022-09-09T01:24:27.318Z,51.33
2022-09-09T01:27:11.140Z,51.75
2022-09-09T01:29:41.138Z,51.60
2022-09-09T01:32:40.748Z,51.25
2022-09-09T01:35:43.294Z,51.44
2022-09-09T01:38:10.670Z,51.60
2022-09-09T01:40:39.458Z,51.56
2022-09-09T01:43:08.898Z,51.48
2022-09-09T01:46:05.513Z,51.45
2022-09-09T01:48:36.811Z,52.01
2022-09-09T01:51:03.971Z,51.76
2022-09-09T01:53:33.195Z,51.52
2022-09-09T01:56:25.253Z,51.52
2022-09-09T01:59:21.620Z,51.38
2022-09-09T02:02:47.724Z,51.98
2022-09-09T02:05:45.979Z,51.90
2022-09-09T02:08:47.576Z,51.86
2022-09-09T02:11:25.696Z,51.55
2022-09-09T02:14:15.138Z,51.99
2022-09-09T02:17:19.111Z,51.51
2022-09-09T02:20:13.718Z,51.76
2022-09-09T02:22:46.711Z,51.54
2022-09-09T02:25:24.024Z,51.92
2022-09-09T02:28:18.865Z,51.63
2022-09-09T02:30:59.015Z,51.52
2022-09-09T02:33:45.849Z,51.57
2022-09-09T02:36:18.648Z,52.03
2022-09-09T02:39:08.415Z,51.60
2022-09-09T02:41:45.404Z,51.56
2022-09-09T02:44:24.754Z,51.63
2022-09-09T02:47:26.247Z,52.02
2022-09-09T02:50:16.808Z,51.99
2022-09-09T02:52:47.412Z,51.56
2022-09-09T02:55:46.321Z,51.65
2022-09-09T02:58:26.163Z,52.06
2022-09-09T03:00:56.108Z,51.63
2022-09-09T03:03:24.981Z,52.02
2022-09-09T03:05:51.769Z,52.00
2022-09-09T03:08:19.777Z,51.90
2022-09-09T03:10:49.422Z,51.74
2022-09-09T03:13:16.530Z,52.16
2022-09-09T03:15:45.318Z,51.78
2022-09-09T03:18:16.808Z,51.84
2022-09-09T03:20:44.239Z,52.23
2022-09-09T03:23:15.609Z,52.28
2022-09-09T03:25:53.873Z,52.32
2022-09-09T03:28:21.770Z,52.32
2022-09-09T03:30:59.690Z,52.17
2022-09-09T03:33:26.734Z,52.23
2022-09-09T03:36:10.647Z,52.07
2022-09-09T03:38:39.888Z,52.06
2022-09-09T03:41:22.655Z,51.89
2022-09-09T03:43:54.630Z,51.75
2022-09-09T03:46:28.639Z,52.36
2022-09-09T03:48:59.378Z,52.15
2022-09-09T03:51:26.254Z,52.38
2022-09-09T03:54:04.413Z,52.44
2022-09-09T03:56:31.520Z,51.92
2022-09-09T03:59:04.909Z,52.01
2022-09-09T04:01:33.503Z,52.31
2022-09-09T04:04:04.417Z,52.33
2022-09-09T04:06:33.275Z,51.96
2022-09-09T04:09:13.227Z,52.12
2022-09-09T04:11:43.719Z,52.13
2022-09-09T04:14:10.797Z,51.92
2022-09-09T04:16:41.491Z,52.30
2022-09-09T04:19:10.347Z,52.21
2022-09-09T04:21:39.209Z,52.50
2022-09-09T04:24:23.013Z,52.42
2022-09-09T04:26:53.979Z,52.16
2022-09-09T04:29:22.948Z,52.49
2022-09-09T04:31:50.008Z,52.08
2022-09-09T04:34:16.937Z,52.21
2022-09-09T04:36:44.038Z,52.34
2022-09-09T04:39:10.902Z,52.22
2022-09-09T04:41:38.739Z,52.13
2022-09-09T04:44:05.681Z,52.28
2022-09-09T04:46:32.529Z,52.28
2022-09-09T04:48:59.351Z,52.19
2022-09-09T04:51:26.354Z,52.21
2022-09-09T04:53:54.948Z,52.65
2022-09-09T04:56:21.966Z,52.57
2022-09-09T04:58:49.039Z,52.34
2022-09-09T05:01:22.523Z,52.17
2022-09-09T05:03:49.837Z,52.46
2022-09-09T05:06:19.921Z,52.42
2022-09-09T05:08:46.898Z,52.54
2022-09-09T05:11:21.756Z,52.52
2022-09-09T05:13:48.768Z,52.24
2022-09-09T05:16:15.795Z,52.57
2022-09-09T05:18:47.046Z,52.59
2022-09-09T05:21:17.166Z,52.32
2022-09-09T05:23:45.498Z,52.63
2022-09-09T05:26:18.242Z,52.35
2022-09-09T05:28:45.867Z,52.50
2022-09-09T05:31:14.963Z,52.40
2022-09-09T05:33:44.343Z,52.85
2022-09-09T05:36:16.611Z,52.50
2022-09-09T05:38:44.420Z,52.72
2022-09-09T05:41:12.600Z,52.38
2022-09-09T05:43:40.231Z,52.64
2022-09-09T05:46:15.886Z,52.64
2022-09-09T05:48:47.262Z,52.75
2022-09-09T05:51:16.741Z,52.75
2022-09-09T05:53:44.803Z,52.92
2022-09-09T05:56:15.263Z,52.73
2022-09-09T05:58:44.808Z,52.76
2022-09-09T06:01:14.791Z,52.84
2022-09-09T06:03:43.202Z,52.72
2022-09-09T06:06:12.986Z,52.77
2022-09-09T06:08:42.083Z,52.61
2022-09-09T06:11:17.561Z,52.31
2022-09-09T06:13:44.913Z,52.50
2022-09-09T06:16:13.847Z,52.37
2022-09-09T06:18:41.960Z,52.89
2022-09-09T06:21:16.877Z,52.68
2022-09-09T06:23:45.531Z,53.11
2022-09-09T06:26:13.862Z,52.50
2022-09-09T06:28:43.097Z,52.86
2022-09-09T06:31:12.260Z,52.52
2022-09-09T06:33:42.062Z,52.54
2022-09-09T06:36:14.851Z,53.00
2022-09-09T06:38:45.708Z,52.67
2022-09-09T06:41:15.623Z,52.87
2022-09-09T06:43:42.837Z,52.71
2022-09-09T06:46:12.758Z,52.67
2022-09-09T06:48:43.421Z,52.71
2022-09-09T06:51:16.649Z,52.93
2022-09-09T06:53:45.602Z,52.89
2022-09-09T06:56:17.384Z,53.35
2022-09-09T06:58:45.968Z,52.93
2022-09-09T07:01:26.730Z,52.93
2022-09-09T07:03:55.564Z,53.00
2022-09-09T07:06:25.370Z,53.14
2022-09-09T07:08:57.363Z,52.62
2022-09-09T07:11:27.971Z,53.07
2022-09-09T07:13:55.068Z,52.67
2022-09-09T07:16:26.262Z,53.19
2022-09-09T07:18:53.682Z,52.85
2022-09-09T07:21:22.000Z,53.23
2022-09-09T07:23:49.116Z,52.62
2022-09-09T07:26:20.165Z,52.53
2022-09-09T07:28:47.618Z,53.03
2022-09-09T07:31:17.751Z,52.83
2022-09-09T07:33:45.891Z,53.24
2022-09-09T07:36:33.845Z,53.21
2022-09-09T07:39:04.055Z,52.74
2022-09-09T07:41:35.125Z,52.80
2022-09-09T07:44:11.826Z,52.92
2022-09-09T07:46:44.441Z,53.01
2022-09-09T07:49:11.836Z,53.08
2022-09-09T07:51:41.973Z,53.24
2022-09-09T07:54:12.095Z,52.92
2022-09-09T07:56:40.509Z,52.84
2022-09-09T07:59:08.217Z,52.65
2022-09-09T08:01:41.235Z,52.77
2022-09-09T08:04:11.457Z,52.67
2022-09-09T08:06:40.867Z,53.15
2022-09-09T08:09:10.299Z,52.90
2022-09-09T08:11:39.401Z,52.78
2022-09-09T08:14:08.705Z,52.86
2022-09-09T08:16:38.901Z,53.02
2022-09-09T08:19:08.178Z,53.04
2022-09-09T08:21:37.787Z,52.69
2022-09-09T08:24:06.166Z,53.07
2022-09-09T08:26:36.142Z,53.20
2022-09-09T08:29:05.103Z,53.14
2022-09-09T08:31:33.867Z,52.47
2022-09-09T08:34:02.566Z,53.10
2022-09-09T08:36:31.027Z,52.76
2022-09-09T08:38:58.729Z,52.54
2022-09-09T08:41:53.628Z,52.50
2022-09-09T08:44:35.762Z,52.52
2022-09-09T08:47:05.507Z,52.67
2022-09-09T08:49:50.836Z,52.83
2022-09-09T08:52:24.367Z,52.79
2022-09-09T08:54:52.928Z,52.39
2022-09-09T08:57:27.798Z,52.45
2022-09-09T08:59:56.861Z,52.84
2022-09-09T09:03:07.819Z,52.07
2022-09-09T09:06:01.072Z,52.72
2022-09-09T09:09:09.181Z,52.65
2022-09-09T09:11:41.586Z,52.37
2022-09-09T09:14:16.859Z,52.58
2022-09-09T09:17:00.384Z,52.47
2022-09-09T09:19:29.506Z,52.67
2022-09-09T09:22:08.232Z,52.21
2022-09-09T09:24:46.786Z,52.27
2022-09-09T09:27:26.270Z,52.52
2022-09-09T09:30:21.523Z,52.37
2022-09-09T09:33:01.069Z,52.36
2022-09-09T09:35:28.081Z,52.64
2022-09-09T09:40:54.074Z,52.84
2022-09-09T09:43:25.196Z,52.54
2022-09-09T09:46:13.889Z,52.46
2022-09-09T09:48:39.162Z,52.48
2022-09-09T09:51:11.626Z,52.51
2022-09-09T09:53:39.926Z,52.04
2022-09-09T09:56:12.726Z,52.35
2022-09-09T09:58:45.570Z,51.94
2022-09-09T10:01:34.376Z,51.82
2022-09-09T10:04:19.619Z,52.06
2022-09-09T10:06:46.577Z,51.54
2022-09-09T10:09:34.699Z,51.74
2022-09-09T10:12:55.774Z,51.89
2022-09-09T10:15:46.908Z,51.77
2022-09-09T10:18:48.770Z,52.08
2022-09-09T10:21:24.645Z,51.23
2022-09-09T10:24:13.280Z,51.57
2022-09-09T10:26:59.336Z,51.42
2022-09-09T10:29:52.301Z,51.80
2022-09-09T10:32:41.691Z,52.21
2022-09-09T10:35:50.407Z,51.80
2022-09-09T10:38:35.029Z,51.91
2022-09-09T10:41:12.842Z,51.59
2022-09-09T10:44:12.757Z,52.21
2022-09-09T10:47:17.081Z,51.55
2022-09-09T10:49:58.946Z,51.68
2022-09-09T10:53:09.683Z,51.87
2022-09-09T10:55:43.887Z,51.24
2022-09-09T10:58:24.756Z,51.42
2022-09-09T11:01:04.503Z,52.04
2022-09-09T11:03:34.415Z,51.35
2022-09-09T11:06:26.722Z,51.19
2022-09-09T11:08:56.964Z,51.36
2022-09-09T11:11:33.718Z,51.33
2022-09-09T11:14:11.032Z,51.26
2022-09-09T11:16:49.505Z,51.26
2022-09-09T11:19:35.300Z,51.28
2022-09-09T11:22:08.321Z,51.54
2022-09-09T11:24:41.688Z,51.72
2022-09-09T11:27:27.288Z,51.14
2022-09-09T11:30:51.267Z,51.38
2022-09-09T11:33:22.256Z,51.80
2022-09-09T11:36:07.238Z,51.26
2022-09-09T11:38:54.110Z,51.60
2022-09-09T11:41:22.577Z,51.36
2022-09-09T11:43:54.727Z,51.34
2022-09-09T11:46:34.861Z,51.33
2022-09-09T11:49:04.742Z,51.39
2022-09-09T11:51:33.762Z,51.26
2022-09-09T11:54:31.122Z,51.55
2022-09-09T11:56:58.377Z,51.16
2022-09-09T11:59:30.028Z,51.68
2022-09-09T12:02:23.273Z,50.68
2022-09-09T12:04:59.254Z,51.16
2022-09-09T12:07:41.337Z,50.93
2022-09-09T12:10:27.322Z,51.43
2022-09-09T12:12:54.281Z,50.82
2022-09-09T12:15:29.846Z,51.13
2022-09-09T12:18:03.100Z,51.11
2022-09-09T12:20:52.188Z,51.09
2022-09-09T12:23:28.443Z,50.91
2022-09-09T12:26:07.490Z,50.82
2022-09-09T12:28:38.331Z,51.37
2022-09-09T12:31:35.364Z,50.54
2022-09-09T12:34:40.727Z,51.34
2022-09-09T12:37:30.662Z,51.02
2022-09-09T12:40:00.421Z,50.61
2022-09-09T12:42:28.053Z,50.75
2022-09-09T12:45:04.371Z,50.54
2022-09-09T12:47:42.426Z,50.67
2022-09-09T12:50:22.266Z,51.13
2022-09-09T12:52:52.076Z,51.29
2022-09-09T12:55:31.125Z,51.07
2022-09-09T12:58:00.462Z,51.08
2022-09-09T13:00:29.100Z,51.13
2022-09-09T13:03:01.870Z,50.91
2022-09-09T13:05:42.718Z,50.72
2022-09-09T13:08:12.371Z,51.41
2022-09-09T13:11:00.201Z,50.85
2022-09-09T13:13:36.236Z,51.44
2022-09-09T13:16:08.142Z,50.93
2022-09-09T13:18:37.302Z,50.68
2022-09-09T13:21:04.350Z,50.68
2022-09-09T13:23:36.142Z,50.95
2022-09-09T13:26:08.703Z,51.04
2022-09-09T13:28:36.148Z,51.04
2022-09-09T13:31:06.013Z,50.97
2022-09-09T13:33:41.065Z,50.94
2022-09-09T13:36:10.168Z,50.61
2022-09-09T13:39:00.409Z,50.61
2022-09-09T13:41:34.749Z,50.41
2022-09-09T13:44:03.922Z,50.52
2022-09-09T13:46:41.506Z,50.31
2022-09-09T13:49:11.171Z,50.95
2022-09-09T13:51:47.875Z,50.39
2022-09-09T13:54:16.994Z,50.68
2022-09-09T13:56:53.220Z,50.93
2022-09-09T13:59:21.744Z,50.78
2022-09-09T14:01:50.204Z,51.05
2022-09-09T14:04:17.619Z,50.60
2022-09-09T14:06:44.828Z,50.75
2022-09-09T14:09:16.675Z,50.73
2022-09-09T14:11:45.107Z,50.74
2022-09-09T14:14:11.984Z,50.88
2022-09-09T14:16:38.926Z,51.02
2022-09-09T14:19:05.939Z,50.90
2022-09-09T14:21:33.624Z,51.04
2022-09-09T14:24:00.453Z,50.52
2022-09-09T14:26:31.369Z,51.05
2022-09-09T14:28:58.498Z,50.70
2022-09-09T14:31:26.307Z,50.57
2022-09-09T14:33:53.746Z,50.59
2022-09-09T14:36:20.840Z,50.51
2022-09-09T14:38:48.225Z,50.58
2022-09-09T14:41:21.066Z,50.10
2022-09-09T14:43:48.018Z,50.86
2022-09-09T14:46:17.568Z,50.97
2022-09-09T14:48:46.172Z,50.72
2022-09-09T14:51:16.677Z,50.99
2022-09-09T14:53:44.758Z,50.58
2022-09-09T14:56:14.557Z,50.92
2022-09-09T14:58:41.802Z,50.92
2022-09-09T15:01:11.866Z,50.59
2022-09-09T15:03:42.986Z,50.86
2022-09-09T15:06:14.992Z,51.21
2022-09-09T15:08:44.864Z,51.17
2022-09-09T15:11:13.614Z,51.19
2022-09-09T15:13:42.235Z,50.66
2022-09-09T15:16:20.181Z,51.32
2022-09-09T15:18:47.921Z,51.22
2022-09-09T15:21:18.224Z,51.15
2022-09-09T15:23:45.161Z,51.03
2022-09-09T15:26:15.039Z,51.27
2022-09-09T15:28:44.680Z,51.30
2022-09-09T15:31:20.393Z,51.00
2022-09-09T15:34:01.962Z,50.73
2022-09-09T15:36:43.861Z,50.68
2022-09-09T15:39:13.934Z,51.13
2022-09-09T15:41:41.523Z,50.72
2022-09-09T15:44:11.247Z,50.66
2022-09-09T15:46:52.428Z,51.17
2022-09-09T15:49:22.955Z,50.88
2022-09-09T15:51:55.202Z,51.03
2022-09-09T15:54:24.861Z,50.97
2022-09-09T15:56:57.420Z,50.88
2022-09-09T15:59:26.514Z,50.77
2022-09-09T16:01:53.522Z,50.62
2022-09-09T16:04:24.255Z,50.57
2022-09-09T16:06:56.657Z,51.13
2022-09-09T16:09:23.579Z,51.38
2022-09-09T16:11:50.435Z,50.89
2022-09-09T16:14:17.495Z,50.57
2022-09-09T16:16:44.379Z,50.63
2022-09-09T16:19:13.697Z,50.99
2022-09-09T16:21:51.002Z,50.96
2022-09-09T16:24:20.182Z,51.23
2022-09-09T16:26:50.628Z,50.71
2022-09-09T16:29:19.481Z,50.73
2022-09-09T16:31:47.940Z,50.74
2022-09-09T16:34:16.054Z,50.95
2022-09-09T16:36:44.226Z,51.13
2022-09-09T16:39:16.482Z,51.35
2022-09-09T16:41:45.080Z,51.18
2022-09-09T16:44:13.765Z,50.97
2022-09-09T16:46:43.169Z,50.94
2022-09-09T16:49:12.530Z,50.98
2022-09-09T16:51:54.131Z,51.12
2022-09-09T16:54:21.237Z,51.23
2022-09-09T16:56:49.201Z,51.12
2022-09-09T16:59:19.119Z,51.39
2022-09-09T17:01:49.009Z,50.94
2022-09-09T17:04:36.487Z,51.51
2022-09-09T17:07:03.699Z,51.56
2022-09-09T17:09:32.214Z,51.15
2022-09-09T17:11:59.538Z,51.53
2022-09-09T17:14:26.591Z,51.27
2022-09-09T17:17:09.335Z,51.08
2022-09-09T17:19:45.202Z,51.42
2022-09-09T17:22:17.141Z,51.12
2022-09-09T17:24:45.496Z,51.87
2022-09-09T17:27:15.094Z,51.36
2022-09-09T17:29:42.011Z,51.74
2022-09-09T17:32:08.937Z,51.71
2022-09-09T17:34:36.118Z,51.43
2022-09-09T17:37:03.213Z,51.45
2022-09-09T17:39:30.137Z,51.61
2022-09-09T17:41:57.093Z,51.58
2022-09-09T17:44:24.369Z,51.32
2022-09-09T17:46:51.352Z,51.77
2022-09-09T17:49:18.875Z,51.95
2022-09-09T17:51:46.681Z,51.85
2022-09-09T17:54:17.381Z,51.14
2022-09-09T17:56:45.105Z,51.82
2022-09-09T17:59:13.870Z,51.31
2022-09-09T18:01:44.835Z,51.54
2022-09-09T18:04:16.852Z,51.25
2022-09-09T18:06:50.082Z,51.82
2022-09-09T18:09:20.723Z,51.45
2022-09-09T18:11:50.010Z,51.89
2022-09-09T18:14:37.242Z,51.88
2022-09-09T18:17:04.422Z,51.44
2022-09-09T18:19:33.076Z,51.74
2022-09-09T18:22:02.879Z,51.59
2022-09-09T18:24:30.748Z,51.46
2022-09-09T18:26:58.210Z,51.71
2022-09-09T18:29:25.586Z,51.77
2022-09-09T18:31:55.695Z,51.43
2022-09-09T18:34:25.536Z,51.89
2022-09-09T18:36:55.002Z,51.53
2022-09-09T18:39:25.054Z,51.58
2022-09-09T18:41:55.345Z,51.56
2022-09-09T18:44:30.381Z,51.90
2022-09-09T18:46:57.752Z,51.34
2022-09-09T18:49:25.474Z,51.71
2022-09-09T18:51:53.350Z,51.47
2022-09-09T18:54:23.577Z,51.60
2022-09-09T18:56:51.145Z,51.55
2022-09-09T18:59:21.000Z,51.88
2022-09-09T19:01:50.565Z,51.99
2022-09-09T19:04:19.203Z,51.63
2022-09-09T19:06:47.633Z,52.01
2022-09-09T19:09:17.831Z,51.49
2022-09-09T19:11:46.133Z,51.46
2022-09-09T19:14:15.902Z,51.81
2022-09-09T19:16:44.439Z,51.93
2022-09-09T19:19:18.111Z,51.67
2022-09-09T19:21:45.509Z,51.94
2022-09-09T19:24:15.938Z,52.07
2022-09-09T19:26:46.510Z,51.75
2022-09-09T19:29:20.960Z,51.88
2022-09-09T19:32:09.756Z,51.95
2022-09-09T19:34:36.409Z,51.65
2022-09-09T19:37:03.401Z,51.61
2022-09-09T19:39:34.485Z,51.83
2022-09-09T19:42:01.962Z,51.62
2022-09-09T19:44:29.368Z,51.99
2022-09-09T19:46:56.166Z,52.19
2022-09-09T19:49:23.162Z,52.05
2022-09-09T19:51:50.151Z,51.92
2022-09-09T19:54:17.057Z,52.15
2022-09-09T19:56:44.193Z,51.80
2022-09-09T19:59:12.998Z,52.17
2022-09-09T20:01:44.807Z,51.89
2022-09-09T20:04:13.127Z,52.16
2022-09-09T20:06:42.936Z,52.33
2022-09-09T20:09:14.547Z,51.99
2022-09-09T20:11:43.154Z,51.74
2022-09-09T20:14:11.651Z,51.42
2022-09-09T20:16:38.898Z,52.02
2022-09-09T20:19:08.233Z,51.91
2022-09-09T20:21:38.341Z,52.03
2022-09-09T20:24:08.920Z,51.94
2022-09-09T20:26:37.484Z,52.34
2022-09-09T20:29:15.713Z,52.23
2022-09-09T20:31:50.928Z,52.24
2022-09-09T20:34:23.242Z,51.86
2022-09-09T20:36:55.459Z,52.12
2022-09-09T20:39:25.116Z,52.16
2022-09-09T20:41:54.573Z,52.05
2022-09-09T20:44:42.474Z,52.41
2022-09-09T20:47:09.877Z,52.02
2022-09-09T20:49:36.972Z,51.84
2022-09-09T20:52:06.523Z,51.94
2022-09-09T20:54:35.775Z,51.97
2022-09-09T20:57:04.227Z,52.18
2022-09-09T20:59:34.022Z,52.19
2022-09-09T21:02:02.662Z,52.35
2022-09-09T21:04:29.749Z,52.24
2022-09-09T21:06:57.941Z,52.27
2022-09-09T21:09:24.943Z,52.56
2022-09-09T21:11:55.743Z,52.26
2022-09-09T21:14:27.425Z,51.95
2022-09-09T21:16:54.894Z,52.27
2022-09-09T21:19:21.742Z,52.08
2022-09-09T21:21:50.718Z,52.37
2022-09-09T21:24:19.167Z,52.11
2022-09-09T21:26:46.328Z,52.19
2022-09-09T21:29:23.107Z,52.07
2022-09-09T21:31:53.910Z,52.53
2022-09-09T21:34:25.098Z,52.08
2022-09-09T21:36:54.126Z,52.47
2022-09-09T21:39:21.440Z,52.68
2022-09-09T21:41:49.642Z,52.59
2022-09-09T21:44:19.343Z,52.21
2022-09-09T21:46:50.714Z,52.38
2022-09-09T21:49:20.498Z,52.65
2022-09-09T21:51:51.130Z,52.67
2022-09-09T21:54:21.655Z,52.54
2022-09-09T21:56:55.713Z,52.31
2022-09-09T21:59:36.153Z,52.56
2022-09-09T22:04:45.587Z,52.32
2022-09-09T22:07:12.825Z,52.50
2022-09-09T22:09:40.598Z,52.23
2022-09-09T22:12:07.548Z,52.28
2022-09-09T22:14:34.528Z,52.22
2022-09-09T22:17:01.777Z,52.51
2022-09-09T22:19:28.822Z,52.52
2022-09-09T22:21:55.668Z,52.69
2022-09-09T22:24:30.400Z,52.59
2022-09-09T22:27:00.493Z,52.48
2022-09-09T22:29:27.517Z,52.30
2022-09-09T22:31:56.229Z,52.62
2022-09-09T22:34:30.190Z,52.76
2022-09-09T22:37:02.249Z,52.55
2022-09-09T22:39:30.200Z,52.49
2022-09-09T22:41:58.055Z,52.68
2022-09-09T22:44:29.965Z,52.43
2022-09-09T22:47:01.291Z,52.52
2022-09-09T22:49:36.245Z,52.45
2022-09-09T22:52:06.222Z,52.55
2022-09-09T22:54:39.273Z,52.53
2022-09-09T22:57:09.127Z,52.35
2022-09-09T22:59:46.832Z,52.69
2022-09-09T23:02:14.599Z,52.48
2022-09-09T23:04:41.590Z,52.72
2022-09-09T23:07:10.307Z,52.62
2022-09-09T23:09:40.663Z,52.75
2022-09-09T23:12:09.738Z,52.68
2022-09-09T23:14:36.575Z,52.54
2022-09-09T23:17:17.610Z,52.39
2022-09-09T23:19:47.264Z,52.78
2022-09-09T23:22:16.447Z,52.52
2022-09-09T23:24:47.664Z,52.70
2022-09-09T23:27:17.660Z,52.56
2022-09-09T23:29:44.658Z,52.37
2022-09-09T23:32:11.781Z,52.69
2022-09-09T23:34:55.981Z,52.67
2022-09-09T23:37:23.034Z,52.89
2022-09-09T23:39:50.066Z,52.71
2022-09-09T23:42:20.420Z,52.53
2022-09-09T23:44:50.298Z,52.94
2022-09-09T23:47:22.478Z,52.98
2022-09-09T23:49:53.725Z,52.64
2022-09-09T23:52:35.632Z,53.01
2022-09-09T23:57:48.741Z,52.64
